Time;durP1;ratioP1;P1;durP2;ratioP2;P2;SDS_P1;SDS_P2;PMS_P1;PMS_P2;Temp;Humidity;BMP_temperature;BMP_pressure;BME280_temperature;BME280_humidity;BME280_pressure;Samples;Min_cycle;Max_cycle;Signal;HPM_P1;HPM_P2
2023/09/14 00:00:33;;;;;;;3.10;1.73;;;;;;;14.16;79.34;102086.06;6192776;28;20233;-68
2023/09/14 00:03:54;;;;;;;3.13;2.17;;;;;;;14.14;79.67;102088.88;6198153;28;20690;-68
2023/09/14 00:07:15;;;;;;;4.17;1.57;;;;;;;14.10;80.08;102082.00;6190440;28;20240;-69
2023/09/14 00:10:36;;;;;;;2.53;1.50;;;;;;;14.09;80.41;102084.84;6196135;28;20236;-69
2023/09/14 00:13:58;;;;;;;2.50;1.83;;;;;;;14.06;79.83;102077.81;6199640;28;20225;-68
2023/09/14 00:17:19;;;;;;;7.40;1.87;;;;;;;14.03;79.53;102079.94;6197876;28;20233;-68
2023/09/14 00:20:40;;;;;;;2.00;1.40;;;;;;;14.01;79.33;102080.06;6199877;28;20269;-67
2023/09/14 00:24:01;;;;;;;2.33;1.60;;;;;;;14.00;79.57;102077.47;6199791;28;20248;-68
2023/09/14 00:27:22;;;;;;;2.93;1.73;;;;;;;14.01;79.69;102080.06;6201016;28;22366;-68
2023/09/14 00:30:44;;;;;;;5.40;2.13;;;;;;;14.04;79.74;102082.50;6194278;28;20213;-67
2023/09/14 00:34:05;;;;;;;6.40;2.37;;;;;;;14.06;80.18;102085.94;6198415;28;20230;-69
2023/09/14 00:37:26;;;;;;;4.20;2.47;;;;;;;14.06;79.87;102085.94;6183980;28;20537;-67
2023/09/14 00:40:48;;;;;;;4.77;2.40;;;;;;;13.93;80.78;102088.00;6200147;28;20320;-68
2023/09/14 00:44:09;;;;;;;1.90;1.53;;;;;;;13.85;81.22;102087.75;6197548;28;20229;-68
2023/09/14 00:47:31;;;;;;;5.13;1.63;;;;;;;13.68;80.85;102088.31;6193292;28;20240;-68
2023/09/14 00:50:52;;;;;;;1.60;1.10;;;;;;;13.75;80.62;102103.06;6199440;28;20642;-68
2023/09/14 00:54:13;;;;;;;6.33;1.77;;;;;;;13.75;81.04;102097.63;6197998;28;20233;-68
2023/09/14 00:57:36;;;;;;;1.57;1.20;;;;;;;13.77;81.24;102097.53;6198494;28;20233;-67
2023/09/14 01:00:57;;;;;;;1.50;1.23;;;;;;;13.78;81.48;102097.38;6190242;28;20237;-68
2023/09/14 01:04:20;;;;;;;3.17;1.30;;;;;;;13.60;82.04;102097.03;6196264;28;20237;-68
2023/09/14 01:07:41;;;;;;;1.67;1.27;;;;;;;13.56;82.03;102100.13;6194304;28;20253;-68
2023/09/14 01:11:02;;;;;;;2.60;1.60;;;;;;;13.61;81.78;102092.50;6187636;28;20228;-68
2023/09/14 01:14:29;;;;;;;5.27;2.60;;;;;;;13.65;81.97;102093.97;6197795;28;20653;-68
2023/09/14 01:18:02;;;;;;;2.43;1.70;;;;;;;13.55;81.78;102090.28;6197130;28;20277;-68
2023/09/14 01:21:39;;;;;;;1.97;1.20;;;;;;;13.61;81.25;102098.78;6198544;28;20225;-69
2023/09/14 01:25:08;;;;;;;1.43;1.20;;;;;;;13.57;81.61;102105.44;6198216;28;20238;-68
2023/09/14 01:28:31;;;;;;;6.03;1.60;;;;;;;13.57;81.69;102100.03;6183701;28;20236;-68
2023/09/14 01:31:52;;;;;;;2.73;1.27;;;;;;;13.59;81.08;102103.47;6195884;28;20249;-67
2023/09/14 01:35:13;;;;;;;2.63;1.17;;;;;;;13.50;81.29;102103.34;6199296;28;20225;-68
2023/09/14 01:38:36;;;;;;;2.23;1.17;;;;;;;13.43;81.61;102099.44;6195325;28;20315;-68
2023/09/14 01:41:58;;;;;;;3.13;0.90;;;;;;;13.41;82.62;102109.53;6196646;28;20232;-68
2023/09/14 01:45:22;;;;;;;4.70;1.40;;;;;;;13.43;82.54;102111.09;6181950;28;20788;-67
2023/09/14 01:48:43;;;;;;;6.97;1.80;;;;;;;13.44;83.00;102106.56;6181105;28;20237;-68
2023/09/14 01:52:04;;;;;;;2.87;1.63;;;;;;;13.33;83.13;102112.00;6193636;28;20263;-68
2023/09/14 01:55:24;;;;;;;2.13;1.30;;;;;;;13.25;83.61;102111.72;6193222;28;20257;-68
2023/09/14 01:58:46;;;;;;;0.90;0.90;;;;;;;13.18;83.29;102103.25;6182434;28;20343;-68
2023/09/14 02:02:08;;;;;;;3.60;1.80;;;;;;;13.34;83.47;102102.88;6174727;28;20233;-68
2023/09/14 02:05:29;;;;;;;1.77;1.07;;;;;;;13.29;83.46;102105.94;6195103;28;20261;-68
2023/09/14 02:08:50;;;;;;;3.03;1.30;;;;;;;13.25;82.93;102107.19;6198559;28;20631;-69
2023/09/14 02:12:11;;;;;;;1.20;1.10;;;;;;;13.15;83.42;102102.63;6186127;28;20238;-68
2023/09/14 02:15:32;;;;;;;1.63;0.90;;;;;;;13.07;83.94;102099.66;6184699;28;20244;-68
2023/09/14 02:18:54;;;;;;;2.80;1.40;;;;;;;13.13;83.96;102100.03;6193325;28;20236;-68
2023/09/14 02:22:14;;;;;;;4.07;1.30;;;;;;;13.07;83.77;102091.53;6192153;28;20241;-69
2023/09/14 02:25:35;;;;;;;2.53;1.73;;;;;;;13.01;83.81;102097.41;6192443;28;20875;-68
2023/09/14 02:28:56;;;;;;;1.47;1.37;;;;;;;13.11;84.10;102098.44;6190533;28;20237;-68
2023/09/14 02:32:17;;;;;;;3.70;2.00;;;;;;;12.94;83.96;102096.16;6192234;28;20332;-68
2023/09/14 02:36:06;;;;;;;1.60;1.50;;;;;;;12.89;84.38;102101.97;6180701;28;20233;-68
2023/09/14 02:39:27;;;;;;;2.50;1.43;;;;;;;12.87;84.11;102100.34;6174988;28;20555;-68
2023/09/14 02:42:48;;;;;;;2.17;1.60;;;;;;;12.89;84.03;102101.97;6190123;28;20311;-68
2023/09/14 02:46:09;;;;;;;1.10;1.00;;;;;;;12.84;84.25;102113.16;6182520;28;20237;-68
2023/09/14 02:49:30;;;;;;;4.20;1.40;;;;;;;12.82;84.91;102111.53;6192890;28;20249;-68
2023/09/14 02:52:52;;;;;;;2.50;1.50;;;;;;;12.75;84.40;102111.16;6197308;28;20319;-69
2023/09/14 02:56:14;;;;;;;2.60;1.50;;;;;;;12.70;84.91;102112.50;6194792;28;20229;-68
2023/09/14 02:59:35;;;;;;;3.23;1.53;;;;;;;12.72;84.98;102111.38;6198102;28;20225;-69
2023/09/14 03:02:55;;;;;;;1.53;1.20;;;;;;;12.76;84.89;102120.16;6174204;28;20433;-68
2023/09/14 03:06:16;;;;;;;2.00;1.50;;;;;;;12.73;84.43;102113.13;6189226;28;20282;-68
2023/09/14 03:09:39;;;;;;;4.70;2.03;;;;;;;12.66;85.11;102114.56;6175279;28;20228;-68
2023/09/14 03:12:59;;;;;;;11.47;2.20;;;;;;;12.72;84.66;102124.91;6181479;28;21131;-69
2023/09/14 03:16:20;;;;;;;1.63;1.40;;;;;;;12.71;84.29;102131.31;6192519;28;20244;-68
2023/09/14 03:19:43;;;;;;;1.43;1.33;;;;;;;12.62;84.96;102125.78;6182164;28;20221;-68
2023/09/14 03:23:04;;;;;;;6.07;2.40;;;;;;;12.62;85.89;102132.03;6163356;28;20229;-68
2023/09/14 03:26:27;;;;;;;7.30;3.30;;;;;;;12.64;85.51;102130.06;6171472;28;20226;-69
2023/09/14 03:29:49;;;;;;;3.10;1.57;;;;;;;12.65;85.60;102122.81;6183595;28;20237;-68
2023/09/14 03:33:11;;;;;;;3.10;1.73;;;;;;;12.59;85.28;102121.44;6184501;28;21831;-68
2023/09/14 03:36:32;;;;;;;2.77;1.20;;;;;;;12.58;84.25;102135.94;6158845;28;1038990;-68
2023/09/14 03:39:53;;;;;;;4.17;1.67;;;;;;;12.49;84.39;102131.25;6456159;23;20505;-68
2023/09/14 03:43:15;;;;;;;2.43;2.10;;;;;;;12.54;85.44;102144.41;6141999;28;20230;-69
2023/09/14 03:46:36;;;;;;;3.43;2.10;;;;;;;12.56;84.82;102139.75;6147149;28;21846;-69
2023/09/14 03:49:57;;;;;;;6.07;1.77;;;;;;;12.52;84.35;102141.81;6149163;28;20231;-69
2023/09/14 03:53:17;;;;;;;1.80;1.33;;;;;;;12.51;85.14;102145.53;6150450;28;20234;-69
2023/09/14 03:56:39;;;;;;;1.67;1.47;;;;;;;12.42;84.50;102151.63;6154882;28;20521;-68
2023/09/14 04:00:04;;;;;;;6.17;1.80;;;;;;;12.42;84.05;102153.47;6151429;28;20222;-68
2023/09/14 04:03:34;;;;;;;1.97;1.47;;;;;;;12.33;84.17;102155.03;6152127;28;20230;-69
2023/09/14 04:06:55;;;;;;;2.27;1.57;;;;;;;12.26;84.45;102145.66;6154591;28;20234;-68
2023/09/14 04:10:15;;;;;;;1.83;1.60;;;;;;;12.30;84.09;102149.88;6137964;28;20238;-69
2023/09/14 04:13:37;;;;;;;3.30;1.87;;;;;;;12.23;84.04;102148.59;6140451;28;20268;-68
2023/09/14 04:17:03;;;;;;;1.20;1.10;;;;;;;12.13;84.27;102144.00;6145414;28;20235;-68
2023/09/14 04:20:24;;;;;;;26.83;23.97;;;;;;;12.13;84.83;102139.44;6139860;28;20242;-69
2023/09/14 04:23:46;;;;;;;15.97;14.03;;;;;;;12.10;85.27;102145.06;6151511;28;20242;-68
2023/09/14 04:27:08;;;;;;;3.73;2.57;;;;;;;12.21;85.63;102141.56;6155687;28;20521;-69
2023/09/14 04:30:29;;;;;;;4.27;2.37;;;;;;;12.22;85.36;102146.88;6151719;28;20231;-69
2023/09/14 04:33:51;;;;;;;2.20;1.90;;;;;;;12.26;84.18;102145.66;6149672;28;20246;-69
2023/09/14 04:37:13;;;;;;;3.63;1.50;;;;;;;12.13;84.45;102144.00;6145093;28;20498;-69
2023/09/14 04:40:37;;;;;;;3.07;1.50;;;;;;;12.06;85.89;102149.00;6135932;28;20245;-69
2023/09/14 04:43:58;;;;;;;4.37;1.70;;;;;;;12.11;86.63;102141.41;6137248;28;20243;-69
2023/09/14 04:47:19;;;;;;;5.07;2.40;;;;;;;12.07;85.91;102144.44;6134576;28;20261;-69
2023/09/14 04:50:42;;;;;;;2.23;1.60;;;;;;;12.04;86.46;102150.94;6147439;28;20325;-68
2023/09/14 04:54:04;;;;;;;2.67;1.33;;;;;;;12.03;86.70;102154.63;6140792;28;20324;-68
2023/09/14 04:57:25;;;;;;;1.27;1.23;;;;;;;12.02;87.00;102161.88;6138470;28;20250;-69
2023/09/14 05:00:48;;;;;;;1.60;1.33;;;;;;;12.06;87.19;102165.19;6130561;28;20227;-68
2023/09/14 05:04:09;;;;;;;3.03;1.50;;;;;;;11.97;86.93;102165.91;6135611;28;20231;-68
2023/09/14 05:07:32;;;;;;;3.03;1.37;;;;;;;11.97;86.36;102160.50;6147967;28;20675;-69
2023/09/14 05:10:53;;;;;;;4.17;1.60;;;;;;;11.96;86.88;102173.16;6125085;28;20813;-69
2023/09/14 05:14:15;;;;;;;2.37;1.77;;;;;;;12.02;86.74;102175.38;6148106;28;20629;-68
2023/09/14 05:17:36;;;;;;;3.43;1.93;;;;;;;12.13;85.57;102182.72;6153616;28;20223;-69
2023/09/14 05:20:58;;;;;;;2.83;1.50;;;;;;;12.08;85.54;102182.16;6147051;28;20242;-69
2023/09/14 05:24:20;;;;;;;3.23;1.60;;;;;;;12.11;85.48;102191.91;6135311;28;20253;-69
2023/09/14 05:27:42;;;;;;;1.97;1.80;;;;;;;12.21;85.46;102193.81;6145088;28;20226;-70
2023/09/14 05:31:02;;;;;;;3.33;1.90;;;;;;;12.25;85.82;102202.53;6126624;28;20269;-67
2023/09/14 05:34:24;;;;;;;4.63;1.50;;;;;;;12.41;85.70;102211.25;6151380;28;20434;-68
2023/09/14 05:37:46;;;;;;;3.20;1.83;;;;;;;12.40;85.58;102198.69;6133783;28;20615;-68
2023/09/14 05:41:11;;;;;;;4.77;2.47;;;;;;;12.50;84.57;102195.19;6148231;28;20590;-67
2023/09/14 05:44:32;;;;;;;3.90;1.67;;;;;;;12.60;84.57;102203.47;6129001;28;20242;-68
2023/09/14 05:47:53;;;;;;;5.00;1.47;;;;;;;12.72;84.91;102203.38;6126451;28;20310;-68
2023/09/14 05:51:14;;;;;;;2.90;1.60;;;;;;;12.77;84.48;102200.31;6145923;28;20325;-68
2023/09/14 05:54:36;;;;;;;2.90;1.67;;;;;;;12.79;84.00;102204.66;6142019;28;20723;-67
2023/09/14 05:57:58;;;;;;;1.90;1.60;;;;;;;12.75;83.47;102203.16;6152439;28;20597;-68
2023/09/14 06:01:20;;;;;;;3.10;1.70;;;;;;;12.82;82.30;102201.72;6161516;28;20254;-67
2023/09/14 06:04:42;;;;;;;3.73;1.97;;;;;;;12.91;81.51;102210.09;6152414;28;20226;-68
2023/09/14 06:08:03;;;;;;;8.93;2.27;;;;;;;13.04;80.69;102210.88;6143960;28;20260;-66
2023/09/14 06:11:24;;;;;;;4.73;2.50;;;;;;;13.14;79.95;102217.34;6156041;28;21067;-67
2023/09/14 06:14:47;;;;;;;2.17;1.43;;;;;;;13.30;79.72;102226.84;6136716;28;20230;-67
2023/09/14 06:18:08;;;;;;;2.27;1.47;;;;;;;13.35;79.45;102226.50;6155828;28;20231;-67
2023/09/14 06:21:29;;;;;;;2.57;1.63;;;;;;;13.35;78.69;102235.47;6158194;28;20274;-69
2023/09/14 06:24:50;;;;;;;2.53;2.30;;;;;;;13.37;78.51;102240.78;6156956;28;20250;-69
2023/09/14 06:28:11;;;;;;;2.60;1.67;;;;;;;13.35;78.26;102249.00;6156613;28;20341;-69
2023/09/14 06:31:33;;;;;;;2.63;1.77;;;;;;;13.39;78.28;102241.53;6152672;28;20226;-68
2023/09/14 06:34:54;;;;;;;3.33;1.63;;;;;;;13.50;77.96;102242.38;6146827;28;20243;-66
2023/09/14 06:38:15;;;;;;;1.53;1.17;;;;;;;13.67;77.00;102240.16;6157039;28;20227;-69
2023/09/14 06:41:36;;;;;;;4.10;2.03;;;;;;;13.80;76.73;102243.63;6156942;28;20230;-66
2023/09/14 06:44:58;;;;;;;6.47;1.60;;;;;;;13.70;76.39;102248.06;6146467;28;20226;-68
2023/09/14 06:48:20;;;;;;;5.40;1.63;;;;;;;13.90;76.25;102247.31;6155616;28;20226;-68
2023/09/14 06:51:41;;;;;;;6.73;1.60;;;;;;;14.01;75.80;102250.91;6136970;28;20624;-67
2023/09/14 06:55:02;;;;;;;1.47;1.30;;;;;;;14.00;74.80;102246.44;6151183;28;20234;-68
2023/09/14 06:58:23;;;;;;;2.23;1.20;;;;;;;14.05;74.71;102249.66;6166285;28;20238;-68
2023/09/14 07:01:44;;;;;;;3.20;1.77;;;;;;;14.08;74.88;102252.09;6146561;28;20234;-66
2023/09/14 07:05:08;;;;;;;1.97;0.90;;;;;;;14.15;74.55;102252.47;6120642;28;20226;-67
2023/09/14 07:08:29;;;;;;;1.67;1.30;;;;;;;14.29;74.21;102255.81;6150292;28;20234;-67
2023/09/14 07:11:50;;;;;;;1.93;1.77;;;;;;;14.42;74.53;102255.66;6159712;28;20602;-67
2023/09/14 07:15:11;;;;;;;1.93;1.63;;;;;;;14.46;73.48;102256.28;6157630;28;20336;-64
2023/09/14 07:18:33;;;;;;;2.43;1.20;;;;;;;14.62;72.46;102263.03;6156401;28;20258;-65
2023/09/14 07:21:56;;;;;;;4.20;1.73;;;;;;;14.76;72.41;102262.72;6155575;28;20268;-65
2023/09/14 07:25:17;;;;;;;1.60;0.90;;;;;;;14.91;71.78;102263.28;6156323;28;20322;-65
2023/09/14 07:28:38;;;;;;;1.87;1.10;;;;;;;15.08;71.29;102262.72;6158261;28;20689;-66
2023/09/14 07:31:59;;;;;;;2.27;1.23;;;;;;;15.38;70.52;102268.19;6150638;28;20238;-64
2023/09/14 07:35:20;;;;;;;8.30;2.60;;;;;;;15.51;70.03;102271.63;6160717;28;20234;-64
2023/09/14 07:38:42;;;;;;;2.80;1.60;;;;;;;15.43;69.19;102276.84;6157708;28;20226;-65
2023/09/14 07:42:04;;;;;;;1.90;1.40;;;;;;;15.61;69.55;102280.69;6163827;28;20612;-66
2023/09/14 07:45:25;;;;;;;3.13;1.60;;;;;;;15.85;68.27;102283.94;6157293;28;20235;-64
2023/09/14 07:48:47;;;;;;;1.37;1.30;;;;;;;15.88;68.34;102283.69;6146178;28;20234;-65
2023/09/14 07:52:07;;;;;;;1.47;1.13;;;;;;;15.86;68.07;102295.69;6125458;28;20274;-64
2023/09/14 07:55:29;;;;;;;3.23;1.90;;;;;;;16.26;68.42;102285.69;6152678;28;20511;-64
2023/09/14 07:58:50;;;;;;;3.00;1.67;;;;;;;16.48;67.67;102290.91;6158183;28;20532;-63
2023/09/14 08:02:11;;;;;;;1.90;1.70;;;;;;;16.48;66.78;102290.91;6154255;28;20616;-65
2023/09/14 08:05:32;;;;;;;4.40;1.63;;;;;;;16.84;70.54;102300.31;6154943;28;20230;-63
2023/09/14 08:08:55;;;;;;;3.90;1.50;;;;;;;16.57;64.99;102303.72;6148853;28;20238;-64
2023/09/14 08:12:17;;;;;;;2.90;1.40;;;;;;;16.60;64.34;102305.31;6158404;28;20255;-65
2023/09/14 08:15:41;;;;;;;2.17;1.30;;;;;;;16.82;64.66;102310.50;6161342;28;20242;-65
2023/09/14 08:19:02;;;;;;;2.08;1.17;;;;;;;16.99;64.04;102315.25;6164123;28;20234;-65
2023/09/14 08:22:23;;;;;;;2.30;1.20;;;;;;;17.08;65.59;102310.81;6160825;28;20238;-64
2023/09/14 08:25:45;;;;;;;2.33;1.48;;;;;;;17.17;64.40;102316.25;6162139;28;20505;-64
2023/09/14 08:29:07;;;;;;;3.30;1.67;;;;;;;17.41;64.43;102311.25;6155614;28;20632;-64
2023/09/14 08:32:28;;;;;;;3.93;1.40;;;;;;;17.42;63.96;102312.06;6160058;28;20238;-64
2023/09/14 08:35:49;;;;;;;1.67;0.80;;;;;;;17.07;62.95;102309.94;6161381;28;20238;-64
2023/09/14 08:39:10;;;;;;;3.65;1.60;;;;;;;17.05;62.49;102313.81;6156879;28;20246;-66
2023/09/14 08:42:31;;;;;;;3.87;1.67;;;;;;;17.15;62.68;102311.94;6160745;28;20309;-65
2023/09/14 08:45:55;;;;;;;2.15;1.27;;;;;;;17.46;62.40;102308.91;6154493;28;20238;-64
2023/09/14 08:49:22;;;;;;;2.90;1.00;;;;;;;17.56;61.18;102317.97;6163030;28;20231;-64
2023/09/14 08:52:44;;;;;;;1.90;1.17;;;;;;;17.64;60.19;102322.72;6161543;28;20325;-65
2023/09/14 08:56:06;;;;;;;1.85;1.08;;;;;;;17.79;60.08;102318.53;6163390;28;20586;-65
2023/09/14 08:59:28;;;;;;;1.83;1.23;;;;;;;17.98;61.02;102315.72;6153282;28;20703;-65
2023/09/14 09:02:53;;;;;;;4.10;3.70;;;;;;;18.19;61.34;102323.72;6158530;28;20234;-64
2023/09/14 09:06:17;;;;;;;3.35;1.10;;;;;;;18.21;57.55;102325.25;6149150;28;20230;-65
2023/09/14 09:09:38;;;;;;;5.63;2.40;;;;;;;18.60;59.36;102322.38;6165614;28;20225;-64
2023/09/14 09:13:01;;;;;;;2.42;1.50;;;;;;;18.91;60.80;102321.00;6170822;28;20615;-67
2023/09/14 09:16:22;;;;;;;2.38;1.33;;;;;;;18.80;58.68;102322.09;6163846;28;21551;-67
2023/09/14 09:19:52;;;;;;;1.85;0.85;;;;;;;19.07;58.00;102322.03;6159098;28;20235;-67
2023/09/14 09:23:16;;;;;;;1.25;0.80;;;;;;;18.91;56.38;102316.41;6166007;28;20526;-67
2023/09/14 09:26:40;;;;;;;4.15;1.10;;;;;;;18.80;55.63;102313.03;6168686;28;20258;-66
2023/09/14 09:30:01;;;;;;;3.05;1.33;;;;;;;19.27;58.12;102314.53;6176638;28;20238;-66
2023/09/14 09:33:34;;;;;;;2.67;0.73;;;;;;;19.41;56.27;102308.53;6163118;28;20367;-67
2023/09/14 09:36:57;;;;;;;1.48;0.60;;;;;;;19.37;54.58;102309.00;6163135;28;20333;-67
2023/09/14 09:40:20;;;;;;;2.20;0.95;;;;;;;19.78;56.11;102319.22;6165710;28;20520;-67
2023/09/14 09:43:44;;;;;;;1.25;1.10;;;;;;;19.54;55.43;102311.72;6175368;28;20318;-68
2023/09/14 09:47:05;;;;;;;2.17;0.95;;;;;;;19.66;54.86;102309.56;6162877;28;20230;-67
2023/09/14 09:50:26;;;;;;;2.00;1.00;;;;;;;20.14;54.88;102307.16;6164859;28;20231;-67
2023/09/14 09:54:05;;;;;;;3.13;1.30;;;;;;;20.21;53.90;102310.13;6163729;28;20234;-67
2023/09/14 09:57:29;;;;;;;2.38;1.00;;;;;;;20.46;52.31;102317.44;6159778;28;20636;-67
2023/09/14 10:00:57;;;;;;;2.28;0.85;;;;;;;20.29;53.15;102313.75;6160300;28;20585;-67
2023/09/14 10:04:18;;;;;;;0.68;0.68;;;;;;;20.33;53.04;102312.41;6159013;28;20227;-67
2023/09/14 10:07:40;;;;;;;0.70;0.63;;;;;;;20.85;52.29;102304.00;6159807;28;20222;-67
2023/09/14 10:11:03;;;;;;;1.35;1.25;;;;;;;20.97;50.39;102306.25;6164732;28;20357;-67
2023/09/14 10:14:25;;;;;;;0.73;0.65;;;;;;;21.70;50.30;102300.81;6162760;28;20226;-67
2023/09/14 10:17:48;;;;;;;1.77;0.90;;;;;;;22.24;49.38;102300.00;6163138;28;20484;-67
2023/09/14 10:21:09;;;;;;;1.90;0.80;;;;;;;21.94;49.24;102300.81;6161660;28;20230;-67
2023/09/14 10:24:30;;;;;;;1.92;1.83;;;;;;;22.09;48.63;102294.41;6152389;28;20222;-68
2023/09/14 10:27:52;;;;;;;2.92;1.45;;;;;;;21.35;48.27;102299.28;6157950;28;20238;-68
2023/09/14 10:31:14;;;;;;;3.03;1.52;;;;;;;20.99;50.67;102306.06;6151763;28;20230;-67
2023/09/14 10:34:37;;;;;;;2.40;0.80;;;;;;;21.14;49.52;102307.16;6166417;28;20600;-67
2023/09/14 10:38:00;;;;;;;1.63;1.10;;;;;;;21.97;48.13;102309.53;6167597;28;20238;-68
2023/09/14 10:41:22;;;;;;;2.17;0.85;;;;;;;23.41;45.67;102298.84;6161841;28;20239;-66
2023/09/14 10:44:45;;;;;;;3.60;0.85;;;;;;;23.99;43.96;102295.31;6162826;28;20227;-67
2023/09/14 10:48:10;;;;;;;1.30;0.77;;;;;;;21.24;46.52;102302.38;6122153;28;20603;-67
2023/09/14 10:51:31;;;;;;;2.47;2.28;;;;;;;23.75;44.67;102310.22;6148987;28;20242;-68
2023/09/14 10:54:52;;;;;;;1.63;1.08;;;;;;;26.64;38.60;102303.13;6139744;28;20524;-67
2023/09/14 10:58:16;;;;;;;1.65;0.77;;;;;;;30.44;33.93;102291.50;6141493;28;20242;-67
2023/09/14 11:01:48;;;;;;;1.00;0.52;;;;;;;32.05;31.12;102293.13;6114172;28;20230;-67
2023/09/14 11:05:13;;;;;;;4.55;1.30;;;;;;;32.55;30.86;102294.28;6151578;28;20572;-68
2023/09/14 11:09:00;;;;;;;0.93;0.52;;;;;;;35.50;27.95;102284.34;6148820;28;20226;-69
2023/09/14 11:12:21;;;;;;;2.25;0.93;;;;;;;34.65;28.24;102283.38;6159959;28;20222;-67
2023/09/14 11:15:42;;;;;;;1.88;0.63;;;;;;;35.45;27.18;102280.59;6158873;28;20794;-67
2023/09/14 11:19:05;;;;;;;0.68;0.60;;;;;;;33.31;28.51;102274.28;6153984;28;20234;-66
2023/09/14 11:22:27;;;;;;;2.67;1.00;;;;;;;30.93;31.24;102268.16;6147277;28;20277;-67
2023/09/14 11:25:48;;;;;;;0.80;0.80;;;;;;;29.03;33.75;102270.94;6125561;28;20250;-67
2023/09/14 11:29:10;;;;;;;1.40;0.57;;;;;;;29.68;33.79;102263.19;6150612;28;20242;-69
2023/09/14 11:32:31;;;;;;;1.75;0.60;;;;;;;29.21;34.08;102264.63;6154807;28;20239;-68
2023/09/14 11:35:53;;;;;;;1.17;1.02;;;;;;;32.39;29.83;102263.47;6150317;28;20234;-69
2023/09/14 11:39:14;;;;;;;0.98;0.57;;;;;;;32.20;28.79;102257.19;6136035;28;20234;-69
2023/09/14 11:43:20;;;;;;;0.95;0.70;;;;;;;34.70;27.60;102259.06;6146897;28;20230;-69
2023/09/14 11:46:44;;;;;;;0.95;0.50;;;;;;;34.53;27.82;102264.75;6153428;28;20270;-68
2023/09/14 11:50:07;;;;;;;1.25;0.63;;;;;;;35.03;26.24;102260.84;6157190;28;20230;-67
2023/09/14 11:53:33;;;;;;;1.45;0.90;;;;;;;35.54;25.46;102259.38;6154812;28;20305;-66
2023/09/14 11:56:58;;;;;;;1.85;0.77;;;;;;;32.88;28.01;102258.06;6154514;28;20250;-67
2023/09/14 12:00:21;;;;;;;1.08;0.80;;;;;;;28.57;32.94;102253.69;6155791;28;20235;-67
2023/09/14 12:03:42;;;;;;;2.63;2.42;;;;;;;28.17;34.48;102255.72;6152829;28;20250;-67
2023/09/14 12:07:04;;;;;;;4.22;2.45;;;;;;;33.04;29.88;102242.50;6149044;28;20261;-68
2023/09/14 12:10:26;;;;;;;2.15;1.35;;;;;;;35.49;26.34;102248.09;6154848;28;20235;-68
2023/09/14 12:13:50;;;;;;;1.90;1.05;;;;;;;34.99;25.05;102252.13;6157859;28;20266;-67
2023/09/14 12:17:22;;;;;;;2.53;0.88;;;;;;;33.28;27.23;102263.59;6150328;28;20246;-68
2023/09/14 12:20:46;;;;;;;2.05;0.60;;;;;;;35.00;26.12;102255.78;6154480;28;20226;-67
2023/09/14 12:24:07;;;;;;;1.85;1.05;;;;;;;33.81;27.43;102249.97;6163401;28;20230;-67
2023/09/14 12:27:32;;;;;;;1.65;0.55;;;;;;;34.68;25.57;102255.66;6163583;28;20230;-68
2023/09/14 12:30:53;;;;;;;1.73;0.68;;;;;;;33.45;26.89;102260.81;6161026;28;20226;-68
2023/09/14 12:34:14;;;;;;;1.60;0.88;;;;;;;33.52;26.74;102253.13;6160188;28;20234;-66
2023/09/14 12:37:35;;;;;;;2.10;1.15;;;;;;;35.02;25.36;102260.00;6156361;28;20242;-69
2023/09/14 12:40:57;;;;;;;1.48;1.00;;;;;;;33.90;25.73;102261.56;6165941;28;20234;-67
2023/09/14 12:44:22;;;;;;;1.20;0.90;;;;;;;32.12;27.45;102252.00;6168791;28;20659;-68
2023/09/14 12:47:46;;;;;;;1.98;1.13;;;;;;;30.96;29.26;102253.78;6161992;28;20768;-67
2023/09/14 12:51:07;;;;;;;0.98;0.90;;;;;;;32.18;28.38;102248.22;6162934;28;20242;-68
2023/09/14 12:54:28;;;;;;;1.10;0.70;;;;;;;27.98;32.93;102253.00;6162649;28;20242;-67
2023/09/14 12:57:51;;;;;;;1.60;0.73;;;;;;;25.82;34.77;102246.91;6150591;28;20261;-67
2023/09/14 13:01:13;;;;;;;3.38;1.55;;;;;;;23.33;39.02;102252.13;6155257;28;20496;-67
2023/09/14 13:04:36;;;;;;;2.65;0.80;;;;;;;23.12;39.94;102251.91;6164472;28;20577;-67
2023/09/14 13:08:00;;;;;;;2.55;1.33;;;;;;;28.72;32.68;102242.28;6155269;28;20790;-68
2023/09/14 13:11:22;;;;;;;2.00;1.00;;;;;;;32.18;29.03;102232.31;6164286;28;20234;-67
2023/09/14 13:14:44;;;;;;;1.08;0.88;;;;;;;32.88;27.93;102227.34;6161101;28;20242;-67
2023/09/14 13:18:09;;;;;;;1.60;1.02;;;;;;;31.88;28.26;102226.00;6157881;28;20234;-67
2023/09/14 13:21:30;;;;;;;0.80;0.70;;;;;;;30.83;28.57;102229.72;6159609;28;20250;-67
2023/09/14 13:24:51;;;;;;;1.75;1.05;;;;;;;30.25;30.63;102228.56;6161809;28;20701;-66
2023/09/14 13:28:12;;;;;;;2.90;1.00;;;;;;;28.69;31.19;102220.50;6157517;28;20637;-66
2023/09/14 13:31:34;;;;;;;1.60;0.80;;;;;;;26.71;35.71;102226.47;6166287;28;20230;-66
2023/09/14 13:34:57;;;;;;;1.98;1.20;;;;;;;30.64;30.89;102222.50;6163998;28;20267;-66
2023/09/14 13:38:18;;;;;;;1.95;1.23;;;;;;;25.71;35.59;102225.34;6164052;28;20547;-67
2023/09/14 13:41:39;;;;;;;2.97;1.73;;;;;;;23.79;39.03;102228.06;6158589;28;20238;-66
2023/09/14 13:44:59;;;;;;;3.42;1.15;;;;;;;23.38;40.83;102226.78;6159870;28;20234;-66
2023/09/14 13:48:24;;;;;;;1.83;0.80;;;;;;;26.78;36.32;102227.41;6157472;28;20309;-66
2023/09/14 13:51:47;;;;;;;1.30;0.93;;;;;;;29.97;32.05;102213.25;6156020;28;20234;-66
2023/09/14 13:55:08;;;;;;;1.30;1.00;;;;;;;29.99;31.40;102215.81;6153641;28;20501;-67
2023/09/14 13:58:29;;;;;;;3.70;1.05;;;;;;;28.71;32.79;102210.03;6160253;28;20619;-68
2023/09/14 14:01:50;;;;;;;2.38;1.00;;;;;;;31.42;29.46;102210.13;6162807;28;20222;-68
2023/09/14 14:05:11;;;;;;;1.98;0.82;;;;;;;31.60;29.37;102211.97;6153013;28;20226;-68
2023/09/14 14:08:33;;;;;;;0.90;0.70;;;;;;;32.09;28.47;102200.28;6160787;28;20582;-69
2023/09/14 14:11:56;;;;;;;2.47;0.93;;;;;;;32.17;29.86;102194.31;6163025;28;20329;-68
2023/09/14 14:15:16;;;;;;;1.40;0.85;;;;;;;31.98;29.88;102195.56;6163942;28;20317;-67
2023/09/14 14:18:37;;;;;;;1.30;0.70;;;;;;;31.55;29.97;102183.94;6163179;28;20322;-67
2023/09/14 14:21:58;;;;;;;1.58;1.13;;;;;;;31.17;30.31;102191.88;6164882;28;20231;-69
2023/09/14 14:25:20;;;;;;;2.90;1.30;;;;;;;28.81;31.67;102193.75;6165182;28;20230;-67
2023/09/14 14:28:41;;;;;;;3.40;1.45;;;;;;;29.37;32.60;102185.41;6161247;28;20231;-68
2023/09/14 14:32:02;;;;;;;1.70;0.90;;;;;;;28.19;33.26;102184.25;6166420;28;20237;-68
2023/09/14 14:35:23;;;;;;;3.55;1.20;;;;;;;28.26;33.58;102189.75;6161501;28;20250;-68
2023/09/14 14:38:44;;;;;;;0.75;0.75;;;;;;;27.70;34.43;102190.34;6159789;28;20321;-68
2023/09/14 14:42:08;;;;;;;2.13;0.80;;;;;;;27.86;34.45;102194.56;6160114;28;20226;-69
2023/09/14 14:45:29;;;;;;;2.10;0.82;;;;;;;26.06;35.41;102189.19;6160165;28;20258;-68
2023/09/14 14:48:50;;;;;;;1.85;1.08;;;;;;;25.93;36.72;102188.31;6157468;28;20238;-67
2023/09/14 14:52:11;;;;;;;3.67;0.98;;;;;;;25.24;39.11;102182.69;6153588;28;20242;-67
2023/09/14 14:55:32;;;;;;;3.17;1.00;;;;;;;25.94;38.59;102181.69;6156330;28;20238;-67
2023/09/14 14:58:56;;;;;;;0.73;0.55;;;;;;;26.50;37.59;102186.00;6159547;28;20235;-67
2023/09/14 15:02:17;;;;;;;1.70;1.13;;;;;;;26.71;37.31;102183.06;6163251;28;20238;-67
2023/09/14 15:05:38;;;;;;;4.03;1.00;;;;;;;26.38;38.16;102176.59;6163482;28;20234;-67
2023/09/14 15:08:59;;;;;;;2.47;1.15;;;;;;;26.14;38.26;102191.81;6162938;28;20234;-67
2023/09/14 15:12:20;;;;;;;6.10;2.63;;;;;;;25.91;37.70;102187.66;6163855;28;20238;-67
2023/09/14 15:15:42;;;;;;;1.20;1.10;;;;;;;25.48;38.18;102192.47;6156738;28;20238;-68
2023/09/14 15:19:03;;;;;;;5.82;5.32;;;;;;;24.67;40.50;102197.63;6167981;28;20245;-66
2023/09/14 15:22:24;;;;;;;5.55;1.85;;;;;;;24.63;41.04;102193.53;6159151;28;20226;-66
2023/09/14 15:25:46;;;;;;;2.42;1.05;;;;;;;24.97;39.33;102186.28;6139900;28;20227;-67
2023/09/14 15:29:08;;;;;;;1.05;0.70;;;;;;;24.56;39.79;102191.56;6158287;28;20234;-67
2023/09/14 15:32:30;;;;;;;1.75;1.00;;;;;;;24.20;41.27;102198.16;6161818;28;20281;-68
2023/09/14 15:35:52;;;;;;;2.63;1.75;;;;;;;23.79;42.35;102197.75;6163164;28;20246;-67
2023/09/14 15:39:13;;;;;;;8.85;8.05;;;;;;;23.51;43.56;102188.47;6161806;28;20226;-67